createdAt,value
2023-03-21T00:00:43.300Z,4.20
2023-03-21T00:03:12.723Z,4.30
2023-03-21T00:05:42.017Z,4.30
2023-03-21T00:08:09.562Z,4.30
2023-03-21T00:10:42.900Z,4.40
2023-03-21T00:13:13.563Z,4.30
2023-03-21T00:16:04.210Z,4.30
2023-03-21T00:18:37.055Z,4.40
2023-03-21T00:21:38.418Z,4.40
2023-03-21T00:23:55.910Z,4.40
2023-03-21T00:26:23.058Z,4.40
2023-03-21T00:28:50.533Z,4.50
2023-03-21T00:31:21.342Z,4.50
2023-03-21T00:33:51.006Z,4.50
2023-03-21T00:36:18.287Z,4.50
2023-03-21T00:38:45.562Z,4.50
2023-03-21T00:41:26.175Z,4.50
2023-03-21T00:44:04.441Z,4.50
2023-03-21T00:46:45.258Z,4.50
2023-03-21T00:49:16.226Z,4.50
2023-03-21T00:51:43.678Z,4.40
2023-03-21T00:54:13.259Z,4.40
2023-03-21T00:56:41.438Z,4.40
2023-03-21T00:59:08.323Z,4.40
2023-03-21T01:01:36.788Z,4.40
2023-03-21T01:04:13.873Z,4.40
2023-03-21T01:06:43.334Z,4.40
2023-03-21T01:09:16.981Z,4.40
2023-03-21T01:11:44.258Z,4.40
2023-03-21T01:14:22.077Z,4.40
2023-03-21T01:16:52.328Z,4.30
2023-03-21T01:19:40.698Z,4.30
2023-03-21T01:22:12.513Z,4.30
2023-03-21T01:24:50.346Z,4.40
2023-03-21T01:27:25.156Z,4.30
2023-03-21T01:29:59.870Z,4.40
2023-03-21T01:32:27.531Z,4.30
2023-03-21T01:34:56.856Z,4.40
2023-03-21T01:37:26.957Z,4.30
2023-03-21T01:39:55.551Z,4.30
2023-03-21T01:42:22.498Z,4.40
2023-03-21T01:44:57.844Z,4.30
2023-03-21T01:47:29.804Z,4.30
2023-03-21T01:50:22.740Z,4.30
2023-03-21T01:52:59.129Z,4.30
2023-03-21T01:55:31.403Z,4.30
2023-03-21T01:58:07.412Z,4.30
2023-03-21T02:01:04.740Z,4.30
2023-03-21T02:03:51.112Z,4.20
2023-03-21T02:06:49.519Z,4.20
2023-03-21T02:09:35.581Z,4.10
2023-03-21T02:12:04.501Z,4.20
2023-03-21T02:14:37.553Z,4.20
2023-03-21T02:17:57.040Z,4.20
2023-03-21T02:21:09.303Z,4.20
2023-03-21T02:23:53.729Z,4.10
2023-03-21T02:26:42.547Z,4.10
2023-03-21T02:29:33.016Z,4.10
2023-03-21T02:32:34.955Z,4.10
2023-03-21T02:35:35.404Z,4.10
2023-03-21T02:38:26.450Z,4.00
2023-03-21T02:41:10.144Z,4.10
2023-03-21T02:43:40.694Z,4.10
2023-03-21T02:46:24.384Z,4.10
2023-03-21T02:49:01.286Z,4.00
2023-03-21T02:51:31.185Z,4.10
2023-03-21T02:54:29.903Z,4.10
2023-03-21T02:56:59.681Z,4.10
2023-03-21T02:59:27.804Z,4.10
2023-03-21T03:02:00.785Z,4.00
2023-03-21T03:04:29.538Z,4.00
2023-03-21T03:07:01.344Z,3.90
2023-03-21T03:09:57.557Z,3.80
2023-03-21T03:12:38.930Z,3.80
2023-03-21T03:15:23.920Z,3.60
2023-03-21T03:18:10.717Z,3.60
2023-03-21T03:21:02.743Z,3.60
2023-03-21T03:23:50.836Z,3.50
2023-03-21T03:26:27.284Z,3.40
2023-03-21T03:29:02.325Z,3.30
2023-03-21T03:31:43.723Z,3.20
2023-03-21T03:34:16.900Z,3.20
2023-03-21T03:36:51.774Z,3.30
2023-03-21T03:39:19.882Z,3.30
2023-03-21T03:42:15.325Z,3.30
2023-03-21T03:44:53.163Z,3.30
2023-03-21T03:47:56.063Z,3.20
2023-03-21T03:50:41.882Z,3.10
2023-03-21T03:53:37.268Z,3.00
2023-03-21T03:56:07.061Z,3.00
2023-03-21T03:58:45.229Z,3.00
2023-03-21T04:01:15.612Z,2.80
2023-03-21T04:03:50.623Z,2.70
2023-03-21T04:06:20.223Z,2.70
2023-03-21T04:08:49.186Z,2.50
2023-03-21T04:11:16.924Z,2.50
2023-03-21T04:13:49.047Z,2.40
2023-03-21T04:16:23.528Z,2.30
2023-03-21T04:18:51.086Z,2.40
2023-03-21T04:21:20.092Z,2.30
2023-03-21T04:23:46.983Z,2.30
2023-03-21T04:26:13.904Z,2.30
2023-03-21T04:28:50.357Z,2.40
2023-03-21T04:31:37.499Z,2.40
2023-03-21T04:34:15.800Z,2.50
2023-03-21T04:36:49.887Z,2.60
2023-03-21T04:39:21.985Z,2.60
2023-03-21T04:41:54.226Z,2.90
2023-03-21T04:44:22.328Z,2.80
2023-03-21T04:46:50.621Z,2.90
2023-03-21T04:49:21.625Z,3.00
2023-03-21T04:51:51.450Z,3.00
2023-03-21T04:54:22.660Z,3.10
2023-03-21T04:56:52.097Z,3.10
2023-03-21T04:59:19.963Z,3.20
2023-03-21T05:01:50.709Z,3.20
2023-03-21T05:04:19.256Z,3.40
2023-03-21T05:06:49.663Z,3.40
2023-03-21T05:09:19.330Z,3.40
2023-03-21T05:11:46.319Z,3.40
2023-03-21T05:14:20.898Z,3.30
2023-03-21T05:16:56.064Z,3.50
2023-03-21T05:19:34.704Z,3.30
2023-03-21T05:22:08.507Z,3.30
2023-03-21T05:24:39.440Z,3.30
2023-03-21T05:27:09.855Z,3.30
2023-03-21T05:29:45.123Z,3.20
2023-03-21T05:32:12.384Z,3.20
2023-03-21T05:34:39.622Z,3.10
2023-03-21T05:37:06.854Z,3.10
2023-03-21T05:39:47.321Z,3.00
2023-03-21T05:42:22.062Z,3.10
2023-03-21T05:44:49.731Z,3.00
2023-03-21T05:47:20.830Z,3.00
2023-03-21T05:49:48.303Z,2.90
2023-03-21T05:52:18.458Z,2.90
2023-03-21T05:54:46.396Z,2.80
2023-03-21T05:57:13.540Z,2.70
2023-03-21T05:59:56.416Z,2.70
2023-03-21T06:02:23.783Z,2.70
2023-03-21T06:04:51.069Z,2.70
2023-03-21T06:07:21.544Z,2.80
2023-03-21T06:09:48.933Z,2.90
2023-03-21T06:12:19.084Z,3.00
2023-03-21T06:15:21.477Z,3.00
2023-03-21T06:17:55.208Z,3.20
2023-03-21T06:20:22.676Z,3.30
2023-03-21T06:22:53.391Z,3.30
2023-03-21T06:25:21.440Z,3.40
2023-03-21T06:27:49.070Z,3.50
2023-03-21T06:30:19.610Z,3.60
2023-03-21T06:33:03.456Z,3.60
2023-03-21T06:35:31.641Z,3.60
2023-03-21T06:37:59.320Z,3.70
2023-03-21T06:40:28.954Z,3.70
2023-03-21T06:42:58.940Z,3.90
2023-03-21T06:45:26.018Z,4.00
2023-03-21T06:47:53.638Z,4.20
2023-03-21T06:50:40.564Z,4.40
2023-03-21T06:53:11.158Z,4.70
2023-03-21T06:55:58.263Z,4.90
2023-03-21T06:58:25.536Z,5.20
2023-03-21T07:00:52.913Z,5.40
2023-03-21T07:03:20.127Z,5.70
2023-03-21T07:05:48.230Z,6.00
2023-03-21T07:08:17.797Z,6.30
2023-03-21T07:10:47.376Z,6.50
2023-03-21T07:13:16.365Z,6.60
2023-03-21T07:15:54.973Z,6.60
2023-03-21T07:18:22.308Z,6.50
2023-03-21T07:20:51.944Z,6.60
2023-03-21T07:23:21.807Z,6.40
2023-03-21T07:25:50.900Z,6.50
2023-03-21T07:28:18.708Z,6.80
2023-03-21T07:30:54.103Z,7.10
2023-03-21T07:33:23.467Z,7.30
2023-03-21T07:36:00.372Z,7.60
2023-03-21T07:38:28.056Z,7.80
2023-03-21T07:40:55.347Z,7.80
2023-03-21T07:43:22.662Z,8.00
2023-03-21T07:45:59.581Z,8.00
2023-03-21T07:48:27.748Z,8.10
2023-03-21T07:50:57.449Z,8.10
2023-03-21T07:53:24.777Z,8.10
2023-03-21T07:55:53.446Z,8.20
2023-03-21T07:58:21.780Z,8.40
2023-03-21T08:00:52.181Z,8.50
2023-03-21T08:03:19.984Z,8.70
2023-03-21T08:05:47.607Z,8.90
2023-03-21T08:08:14.699Z,9.10
2023-03-21T08:10:44.621Z,9.20
2023-03-21T08:13:13.316Z,9.30
2023-03-21T08:15:42.604Z,9.40
2023-03-21T08:18:12.072Z,9.70
2023-03-21T08:20:39.434Z,10.00
2023-03-21T08:23:06.663Z,10.40
2023-03-21T08:25:33.908Z,10.50
2023-03-21T08:28:04.349Z,10.40
2023-03-21T08:30:33.646Z,10.20
2023-03-21T08:33:05.299Z,10.10
2023-03-21T08:35:32.179Z,9.80
2023-03-21T08:37:59.050Z,9.70
2023-03-21T08:40:25.980Z,9.50
2023-03-21T08:42:53.223Z,9.40
2023-03-21T08:45:21.070Z,9.60
2023-03-21T08:47:48.606Z,9.50
2023-03-21T08:50:18.794Z,9.60
2023-03-21T08:52:46.099Z,9.80
2023-03-21T08:55:14.334Z,10.10
2023-03-21T08:57:41.990Z,10.30
2023-03-21T09:00:14.884Z,10.40
2023-03-21T09:02:45.063Z,10.50
2023-03-21T09:05:12.916Z,10.60
2023-03-21T09:07:41.175Z,10.70
2023-03-21T09:10:26.163Z,10.80
2023-03-21T09:12:55.111Z,11.00
2023-03-21T09:15:25.237Z,11.10
2023-03-21T09:17:54.728Z,11.30
2023-03-21T09:20:26.932Z,11.30
2023-03-21T09:22:56.988Z,11.10
2023-03-21T09:25:24.870Z,10.80
2023-03-21T09:27:53.996Z,10.50
2023-03-21T09:30:26.207Z,10.20
2023-03-21T09:32:56.056Z,10.00
2023-03-21T09:35:25.082Z,9.80
2023-03-21T09:37:52.345Z,9.70
2023-03-21T09:40:44.470Z,9.50
2023-03-21T09:43:26.375Z,9.40
2023-03-21T09:46:04.939Z,9.50
2023-03-21T09:48:56.673Z,9.40
2023-03-21T09:51:31.721Z,9.40
2023-03-21T09:54:04.069Z,9.30
2023-03-21T09:56:31.534Z,9.50
2023-03-21T09:59:01.559Z,9.40
2023-03-21T10:01:41.874Z,9.50
2023-03-21T10:04:15.614Z,9.50
2023-03-21T10:06:46.129Z,9.60
2023-03-21T10:09:23.616Z,9.60
2023-03-21T10:12:02.201Z,9.80
2023-03-21T10:14:31.521Z,9.90
2023-03-21T10:17:22.554Z,10.00
2023-03-21T10:20:21.783Z,10.20
2023-03-21T10:22:52.185Z,10.40
2023-03-21T10:25:40.048Z,10.60
2023-03-21T10:28:09.624Z,10.50
2023-03-21T10:30:49.280Z,10.70
2023-03-21T10:33:32.635Z,10.70
2023-03-21T10:36:08.518Z,10.80
2023-03-21T10:38:37.771Z,10.70
2023-03-21T10:41:04.929Z,10.80
2023-03-21T10:43:35.690Z,10.80
2023-03-21T10:46:27.850Z,10.80
2023-03-21T10:48:55.262Z,10.70
2023-03-21T10:51:33.167Z,10.90
2023-03-21T10:54:05.822Z,10.70
2023-03-21T10:56:41.146Z,10.80
2023-03-21T10:59:17.617Z,10.80
2023-03-21T11:01:50.560Z,10.60
2023-03-21T11:04:29.179Z,10.80
2023-03-21T11:06:57.935Z,10.60
2023-03-21T11:09:27.934Z,10.40
2023-03-21T11:12:02.660Z,10.20
2023-03-21T11:14:40.282Z,10.10
2023-03-21T11:17:24.145Z,9.80
2023-03-21T11:19:52.634Z,9.70
2023-03-21T11:22:24.698Z,9.50
2023-03-21T11:24:59.734Z,9.20
2023-03-21T11:27:30.392Z,9.10
2023-03-21T11:30:01.616Z,9.00
2023-03-21T11:32:35.284Z,8.90
2023-03-21T11:35:18.308Z,8.80
2023-03-21T11:37:53.481Z,8.70
2023-03-21T11:40:30.825Z,8.60
2023-03-21T11:42:59.463Z,8.60
2023-03-21T11:45:28.283Z,8.50
2023-03-21T11:47:58.074Z,8.50
2023-03-21T11:50:35.597Z,8.20
2023-03-21T11:53:10.643Z,8.10
2023-03-21T11:55:52.342Z,7.80
2023-03-21T11:58:36.481Z,7.80
2023-03-21T12:01:19.499Z,7.80
2023-03-21T12:03:49.528Z,7.90
2023-03-21T12:06:33.032Z,7.70
2023-03-21T12:09:08.732Z,7.70
2023-03-21T12:12:18.732Z,7.70
2023-03-21T12:14:59.767Z,7.80
2023-03-21T12:17:57.533Z,7.80
2023-03-21T12:20:39.627Z,7.90
2023-03-21T12:23:47.445Z,7.80
2023-03-21T12:26:19.915Z,7.80
2023-03-21T12:29:11.142Z,7.90
2023-03-21T12:32:07.324Z,7.90
2023-03-21T12:35:04.560Z,8.00
2023-03-21T12:37:53.858Z,7.90
2023-03-21T12:40:46.453Z,8.00
2023-03-21T12:43:46.928Z,8.00
2023-03-21T12:46:27.540Z,8.00
2023-03-21T12:49:24.690Z,8.00
2023-03-21T12:51:59.725Z,8.00
2023-03-21T12:54:39.851Z,8.20
2023-03-21T12:57:25.427Z,8.30
2023-03-21T13:00:04.844Z,8.10
2023-03-21T13:02:36.851Z,8.20
2023-03-21T13:05:10.909Z,8.20
2023-03-21T13:07:41.645Z,8.20
2023-03-21T13:10:20.948Z,8.20
2023-03-21T13:13:02.845Z,8.30
2023-03-21T13:16:00.811Z,8.40
2023-03-21T13:18:42.000Z,8.40
2023-03-21T13:21:15.540Z,8.20
2023-03-21T13:24:00.006Z,8.10
2023-03-21T13:26:42.304Z,8.00
2023-03-21T13:29:42.666Z,7.90
2023-03-21T13:32:23.433Z,7.80
2023-03-21T13:35:20.645Z,7.60
2023-03-21T13:38:13.217Z,7.50
2023-03-21T13:40:52.140Z,7.50
2023-03-21T13:43:40.601Z,7.40
2023-03-21T13:46:15.390Z,7.30
2023-03-21T13:49:04.240Z,7.20
2023-03-21T13:51:37.157Z,7.20
2023-03-21T13:54:07.076Z,7.30
2023-03-21T13:56:54.849Z,7.30
2023-03-21T13:59:37.135Z,7.40
2023-03-21T14:02:28.848Z,7.20
2023-03-21T14:05:23.046Z,7.20
2023-03-21T14:08:06.063Z,7.10
2023-03-21T14:10:41.816Z,7.00
2023-03-21T14:13:17.051Z,6.90
2023-03-21T14:15:54.896Z,7.00
2023-03-21T14:18:35.058Z,6.80
2023-03-21T14:21:05.086Z,6.70
2023-03-21T14:23:32.418Z,6.60
2023-03-21T14:25:59.617Z,6.50
2023-03-21T14:28:30.517Z,6.40
2023-03-21T14:31:00.792Z,6.40
2023-03-21T14:33:40.210Z,6.50
2023-03-21T14:36:12.635Z,6.60
2023-03-21T14:38:40.583Z,6.60
2023-03-21T14:44:26.878Z,6.80
2023-03-21T14:47:05.768Z,6.80
2023-03-21T14:49:37.593Z,6.80
2023-03-21T14:52:13.656Z,6.80
2023-03-21T14:54:43.379Z,6.70
2023-03-21T14:57:21.962Z,6.70
2023-03-21T14:59:53.268Z,6.60
2023-03-21T15:02:22.966Z,6.50
2023-03-21T15:04:54.321Z,6.50
2023-03-21T15:07:34.862Z,6.60
2023-03-21T15:10:05.554Z,6.60
2023-03-21T15:12:36.076Z,6.40
2023-03-21T15:15:06.159Z,6.30
2023-03-21T15:17:33.115Z,6.40
2023-03-21T15:20:06.150Z,6.50
2023-03-21T15:22:46.243Z,6.40
2023-03-21T15:25:20.228Z,6.40
2023-03-21T15:27:49.418Z,6.40
2023-03-21T15:30:28.243Z,6.30
2023-03-21T15:32:56.766Z,6.40
2023-03-21T15:35:31.450Z,6.50
2023-03-21T15:37:59.549Z,6.50
2023-03-21T15:40:32.106Z,6.60
2023-03-21T15:43:19.379Z,6.60
2023-03-21T15:45:59.092Z,6.50
2023-03-21T15:48:28.635Z,6.60
2023-03-21T15:50:55.535Z,6.60
2023-03-21T15:53:24.191Z,6.60
2023-03-21T15:55:53.538Z,6.50
2023-03-21T15:58:26.981Z,6.40
2023-03-21T16:00:55.748Z,6.30
2023-03-21T16:03:28.460Z,6.40
2023-03-21T16:06:13.344Z,6.30
2023-03-21T16:08:49.574Z,6.30
2023-03-21T16:11:25.842Z,6.30
2023-03-21T16:13:56.554Z,6.30
2023-03-21T16:16:28.195Z,6.30
2023-03-21T16:18:57.503Z,6.30
2023-03-21T16:21:27.195Z,6.20
2023-03-21T16:23:58.226Z,6.20
2023-03-21T16:26:37.578Z,6.30
2023-03-21T16:29:06.011Z,6.10
2023-03-21T16:31:38.915Z,6.20
2023-03-21T16:34:06.128Z,6.10
2023-03-21T16:36:38.331Z,6.10
2023-03-21T16:39:16.218Z,6.10
2023-03-21T16:41:43.345Z,6.00
2023-03-21T16:44:10.739Z,6.00
2023-03-21T16:46:38.239Z,6.00
2023-03-21T16:49:05.438Z,6.00
2023-03-21T16:51:35.426Z,6.00
2023-03-21T16:54:05.221Z,5.90
2023-03-21T16:56:46.843Z,5.90
2023-03-21T16:59:16.617Z,6.00
2023-03-21T17:01:45.948Z,5.90
2023-03-21T17:04:13.478Z,5.80
2023-03-21T17:06:47.632Z,5.80
2023-03-21T17:09:15.905Z,5.70
2023-03-21T17:11:43.908Z,5.60
2023-03-21T17:14:12.629Z,5.70
2023-03-21T17:16:42.884Z,5.60
2023-03-21T17:19:17.685Z,5.60
2023-03-21T17:21:45.176Z,5.50
2023-03-21T17:24:12.535Z,5.50
2023-03-21T17:26:44.730Z,5.40
2023-03-21T17:29:14.084Z,5.40
2023-03-21T17:31:41.272Z,5.40
2023-03-21T17:34:11.209Z,5.30
2023-03-21T17:36:42.490Z,5.30
2023-03-21T17:39:15.558Z,5.30
2023-03-21T17:41:42.573Z,5.30
2023-03-21T17:44:13.455Z,5.20
2023-03-21T17:46:41.765Z,5.20
2023-03-21T17:49:12.734Z,5.10
2023-03-21T17:51:41.092Z,5.10
2023-03-21T17:54:08.436Z,4.90
2023-03-21T17:56:37.877Z,4.80
2023-03-21T17:59:07.373Z,4.80
2023-03-21T18:01:35.814Z,4.80
2023-03-21T18:04:03.370Z,4.80
2023-03-21T18:06:30.895Z,4.80
2023-03-21T18:08:59.660Z,4.80
2023-03-21T18:11:27.921Z,4.70
2023-03-21T18:14:09.927Z,4.70
2023-03-21T18:16:44.861Z,4.70
2023-03-21T18:19:13.631Z,4.60
2023-03-21T18:21:45.837Z,4.70
2023-03-21T18:24:14.499Z,4.60
2023-03-21T18:26:42.594Z,4.50
2023-03-21T18:32:07.448Z,4.40
2023-03-21T18:34:37.862Z,4.30
2023-03-21T18:37:08.038Z,4.30
2023-03-21T18:39:35.546Z,4.30
2023-03-21T18:42:04.328Z,4.30
2023-03-21T18:44:38.145Z,4.30
2023-03-21T18:47:06.632Z,4.30
2023-03-21T18:50:10.458Z,4.40
2023-03-21T18:52:26.543Z,4.40
2023-03-21T18:54:54.533Z,4.50
2023-03-21T18:57:39.150Z,4.50
2023-03-21T19:00:13.294Z,4.50
2023-03-21T19:02:46.759Z,4.60
2023-03-21T19:05:16.206Z,4.60
2023-03-21T19:07:43.673Z,4.60
2023-03-21T19:10:19.572Z,4.70
2023-03-21T19:12:52.745Z,4.70
2023-03-21T19:15:21.949Z,4.70
2023-03-21T19:20:37.874Z,4.70
2023-03-21T19:23:06.467Z,4.70
2023-03-21T19:25:33.654Z,4.70
2023-03-21T19:28:01.051Z,4.70
2023-03-21T19:30:28.158Z,4.80
2023-03-21T19:32:55.766Z,4.80
2023-03-21T19:35:23.213Z,4.70
2023-03-21T19:37:50.699Z,4.60
2023-03-21T19:40:19.977Z,4.50
2023-03-21T19:42:49.570Z,4.50
2023-03-21T19:45:19.234Z,4.50
2023-03-21T19:47:46.425Z,4.40
2023-03-21T19:53:00.856Z,4.30
2023-03-21T19:55:28.073Z,4.30
2023-03-21T19:57:55.508Z,4.40
2023-03-21T20:00:23.106Z,4.50
2023-03-21T20:02:51.324Z,4.50
2023-03-21T20:05:22.489Z,4.50
2023-03-21T20:07:55.499Z,4.40
2023-03-21T20:10:22.540Z,4.50
2023-03-21T20:12:49.806Z,4.30
2023-03-21T20:15:20.886Z,4.40
2023-03-21T20:17:49.751Z,4.40
2023-03-21T20:20:18.791Z,4.40
2023-03-21T20:23:06.412Z,4.50
2023-03-21T20:25:34.989Z,4.50
2023-03-21T20:28:25.024Z,4.50
2023-03-21T20:30:53.237Z,4.60
2023-03-21T20:33:23.365Z,4.60
2023-03-21T20:38:52.193Z,4.60
2023-03-21T20:41:21.765Z,4.70
2023-03-21T20:46:37.668Z,4.60
2023-03-21T20:49:07.340Z,4.60
2023-03-21T20:54:21.690Z,4.50
2023-03-21T20:56:49.532Z,4.50
2023-03-21T20:59:26.155Z,4.60
2023-03-21T21:01:55.684Z,4.50
2023-03-21T21:04:41.238Z,4.50
2023-03-21T21:07:16.217Z,4.60
2023-03-21T21:09:47.543Z,4.60
2023-03-21T21:12:16.621Z,4.60
2023-03-21T21:14:44.308Z,4.60
2023-03-21T21:17:27.749Z,4.60
2023-03-21T21:19:58.477Z,4.60
2023-03-21T21:22:28.565Z,4.60
2023-03-21T21:24:55.364Z,4.70
2023-03-21T21:27:22.718Z,4.70
2023-03-21T21:29:50.113Z,4.70
2023-03-21T21:32:18.881Z,4.70
2023-03-21T21:34:57.451Z,4.80
2023-03-21T21:37:25.388Z,4.80
2023-03-21T21:39:52.934Z,4.70
2023-03-21T21:42:20.590Z,4.70
2023-03-21T21:44:50.151Z,4.70
2023-03-21T21:47:19.220Z,4.70
2023-03-21T21:49:46.449Z,4.60
2023-03-21T21:52:13.754Z,4.60
2023-03-21T21:54:45.730Z,4.50
2023-03-21T21:57:13.596Z,4.40
2023-03-21T21:59:40.850Z,4.40
2023-03-21T22:02:11.033Z,4.40
2023-03-21T22:04:38.252Z,4.40
2023-03-21T22:07:14.423Z,4.40
2023-03-21T22:09:42.697Z,4.30
2023-03-21T22:12:10.982Z,4.20
2023-03-21T22:14:38.378Z,4.00
2023-03-21T22:17:05.512Z,3.90
2023-03-21T22:19:32.368Z,3.80
2023-03-21T22:21:59.277Z,3.70
2023-03-21T22:24:28.535Z,3.60
2023-03-21T22:26:58.300Z,3.60
2023-03-21T22:29:26.282Z,3.50
2023-03-21T22:31:54.539Z,3.50
2023-03-21T22:34:24.121Z,3.40
2023-03-21T22:36:51.095Z,3.30
2023-03-21T22:39:20.497Z,3.30
2023-03-21T22:41:47.631Z,3.40
2023-03-21T22:44:14.692Z,3.40
2023-03-21T22:46:41.556Z,3.50
2023-03-21T22:49:08.635Z,3.60
2023-03-21T22:51:37.857Z,3.70
2023-03-21T22:54:05.187Z,3.70
2023-03-21T22:56:32.010Z,3.80
2023-03-21T22:59:00.485Z,4.00
2023-03-21T23:01:27.256Z,4.00
2023-03-21T23:03:54.143Z,4.30
2023-03-21T23:06:20.988Z,4.10
2023-03-21T23:08:50.612Z,4.10
2023-03-21T23:11:20.193Z,4.10
2023-03-21T23:13:56.080Z,4.10
2023-03-21T23:16:32.689Z,4.00
2023-03-21T23:18:59.736Z,4.00
2023-03-21T23:21:26.577Z,4.00
2023-03-21T23:23:53.992Z,4.00
2023-03-21T23:26:23.983Z,4.00
2023-03-21T23:28:53.046Z,4.00
2023-03-21T23:31:24.284Z,4.00
2023-03-21T23:33:51.920Z,3.90
2023-03-21T23:36:21.251Z,3.90
2023-03-21T23:38:48.875Z,3.80
2023-03-21T23:41:19.845Z,3.80
2023-03-21T23:43:47.092Z,3.80
2023-03-21T23:46:15.458Z,3.70
2023-03-21T23:48:43.332Z,3.70
2023-03-21T23:51:11.938Z,3.80
2023-03-21T23:53:39.671Z,3.80
2023-03-21T23:56:33.509Z,3.80
2023-03-21T23:59:00.603Z,3.70
